createdAt,value
2023-04-20T00:01:32.526Z,4.07
2023-04-20T00:04:03.776Z,3.70
2023-04-20T00:06:35.087Z,3.33
2023-04-20T00:09:06.461Z,3.70
2023-04-20T00:11:37.811Z,3.40
2023-04-20T00:14:09.305Z,4.07
2023-04-20T00:16:40.288Z,3.57
2023-04-20T00:19:11.262Z,6.97
2023-04-20T00:21:42.188Z,4.87
2023-04-20T00:24:13.357Z,3.73
2023-04-20T00:26:44.313Z,4.43
2023-04-20T00:29:15.363Z,3.63
2023-04-20T00:31:46.699Z,5.43
2023-04-20T00:34:17.755Z,3.97
2023-04-20T00:36:48.962Z,8.40
2023-04-20T00:39:20.378Z,5.37
2023-04-20T00:41:51.427Z,4.73
2023-04-20T00:44:22.453Z,7.30
2023-04-20T00:46:55.116Z,3.77
2023-04-20T00:49:26.444Z,4.03
2023-04-20T00:51:57.727Z,4.83
2023-04-20T00:54:29.639Z,3.80
2023-04-20T00:57:01.416Z,4.77
2023-04-20T00:59:32.256Z,3.43
2023-04-20T01:02:03.624Z,4.23
2023-04-20T01:08:15.926Z,8.47
2023-04-20T01:10:47.337Z,7.33
2023-04-20T01:13:18.410Z,4.13
2023-04-20T01:15:49.461Z,6.83
2023-04-20T01:18:20.704Z,3.90
2023-04-20T01:20:51.748Z,4.67
2023-04-20T01:23:23.087Z,5.43
2023-04-20T01:25:53.993Z,4.37
2023-04-20T01:28:26.721Z,7.60
2023-04-20T01:30:57.807Z,4.35
2023-04-20T01:33:28.751Z,3.90
2023-04-20T01:36:00.042Z,3.90
2023-04-20T01:38:33.030Z,3.70
2023-04-20T01:41:04.721Z,4.27
2023-04-20T01:43:37.102Z,3.73
2023-04-20T01:46:08.740Z,5.93
2023-04-20T01:48:39.722Z,3.90
2023-04-20T01:51:10.938Z,4.10
2023-04-20T01:53:41.995Z,3.83
2023-04-20T01:56:12.938Z,5.73
2023-04-20T01:58:43.964Z,4.53
2023-04-20T02:01:14.961Z,3.73
2023-04-20T02:03:46.249Z,3.43
2023-04-20T02:06:17.477Z,4.60
2023-04-20T02:08:48.384Z,5.03
2023-04-20T02:11:19.417Z,3.73
2023-04-20T02:13:50.489Z,4.43
2023-04-20T02:16:22.000Z,4.93
2023-04-20T02:18:53.003Z,4.90
2023-04-20T02:21:24.022Z,6.03
2023-04-20T02:23:55.022Z,4.67
2023-04-20T02:26:25.939Z,5.60
2023-04-20T02:28:57.028Z,5.60
2023-04-20T02:31:28.157Z,6.43
2023-04-20T02:33:59.226Z,4.13
2023-04-20T02:36:30.230Z,5.12
2023-04-20T02:39:01.266Z,4.00
2023-04-20T02:41:32.824Z,4.17
2023-04-20T02:44:04.091Z,6.47
2023-04-20T02:46:34.972Z,6.70
2023-04-20T02:49:06.171Z,5.20
2023-04-20T02:51:37.201Z,5.13
2023-04-20T02:54:08.988Z,5.43
2023-04-20T02:56:39.952Z,4.00
2023-04-20T02:59:11.242Z,5.63
2023-04-20T03:01:42.450Z,4.30
2023-04-20T03:04:14.064Z,3.97
2023-04-20T03:06:45.254Z,7.33
2023-04-20T03:09:16.557Z,4.13
2023-04-20T03:11:48.670Z,4.03
2023-04-20T03:14:19.698Z,3.50
2023-04-20T03:16:50.988Z,4.83
2023-04-20T03:19:21.945Z,5.73
2023-04-20T03:21:53.136Z,3.95
2023-04-20T03:24:24.792Z,4.43
2023-04-20T03:26:55.924Z,7.87
2023-04-20T03:29:27.024Z,5.20
2023-04-20T03:31:58.078Z,5.28
2023-04-20T03:34:29.100Z,7.53
2023-04-20T03:37:00.156Z,4.43
2023-04-20T03:39:31.251Z,3.70
2023-04-20T03:42:02.401Z,6.10
2023-04-20T03:44:33.458Z,4.53
2023-04-20T03:47:04.545Z,6.13
2023-04-20T03:49:35.825Z,5.03
2023-04-20T03:52:08.071Z,3.77
2023-04-20T03:54:39.211Z,5.77
2023-04-20T03:57:10.303Z,6.97
2023-04-20T03:59:59.874Z,6.33
2023-04-20T04:02:32.232Z,5.87
2023-04-20T04:05:03.203Z,3.73
2023-04-20T04:07:34.330Z,3.80
2023-04-20T04:10:06.115Z,4.13
2023-04-20T04:12:37.153Z,4.80
2023-04-20T04:15:10.706Z,4.13
2023-04-20T04:17:42.109Z,4.65
2023-04-20T04:20:15.372Z,4.87
2023-04-20T04:22:46.795Z,3.93
2023-04-20T04:25:18.748Z,4.03
2023-04-20T04:27:49.854Z,5.87
2023-04-20T04:30:20.879Z,3.83
2023-04-20T04:32:52.971Z,4.20
2023-04-20T04:35:24.216Z,4.47
2023-04-20T04:37:55.150Z,4.80
2023-04-20T04:40:26.335Z,5.53
2023-04-20T04:42:58.734Z,3.90
2023-04-20T04:45:29.940Z,5.17
2023-04-20T04:48:01.086Z,4.53
2023-04-20T04:50:32.378Z,4.13
2023-04-20T04:53:03.369Z,4.43
2023-04-20T04:55:34.410Z,5.53
2023-04-20T04:58:05.431Z,5.00
2023-04-20T05:00:36.578Z,3.93
2023-04-20T05:03:07.964Z,4.40
2023-04-20T05:05:39.509Z,3.77
2023-04-20T05:08:11.383Z,4.47
2023-04-20T05:10:42.370Z,5.70
2023-04-20T05:13:13.498Z,5.03
2023-04-20T05:15:44.549Z,5.97
2023-04-20T05:18:15.585Z,8.33
2023-04-20T05:20:46.275Z,4.97
2023-04-20T05:23:16.965Z,5.30
2023-04-20T05:25:47.911Z,6.33
2023-04-20T05:28:18.879Z,5.37
2023-04-20T05:30:49.613Z,4.43
2023-04-20T05:33:20.249Z,5.43
2023-04-20T05:35:51.944Z,4.70
2023-04-20T05:38:22.886Z,4.97
2023-04-20T05:40:53.550Z,6.10
2023-04-20T05:43:24.144Z,4.13
2023-04-20T05:45:54.807Z,6.50
2023-04-20T05:48:29.890Z,4.13
2023-04-20T05:50:59.797Z,5.30
2023-04-20T05:53:30.509Z,4.50
2023-04-20T05:56:01.119Z,5.00
2023-04-20T05:58:33.721Z,7.73
2023-04-20T06:01:04.544Z,7.40
2023-04-20T06:03:35.420Z,6.13
2023-04-20T06:06:07.111Z,3.77
2023-04-20T06:08:37.787Z,5.70
2023-04-20T06:11:08.602Z,4.23
2023-04-20T06:13:39.428Z,6.03
2023-04-20T06:16:11.168Z,5.00
2023-04-20T06:18:42.549Z,4.60
2023-04-20T06:21:13.771Z,4.97
2023-04-20T06:23:45.366Z,5.53
2023-04-20T06:26:16.385Z,5.63
2023-04-20T06:28:48.725Z,6.53
2023-04-20T06:31:20.034Z,4.87
2023-04-20T06:33:51.061Z,6.70
2023-04-20T06:36:22.364Z,5.63
2023-04-20T06:38:54.676Z,6.07
2023-04-20T06:41:25.748Z,6.30
2023-04-20T06:43:56.873Z,7.33
2023-04-20T06:46:27.918Z,6.20
2023-04-20T06:48:59.617Z,6.50
2023-04-20T06:51:30.843Z,8.23
2023-04-20T06:54:01.811Z,14.87
2023-04-20T06:56:34.289Z,6.70
2023-04-20T06:59:05.216Z,7.60
2023-04-20T07:01:36.332Z,7.37
2023-04-20T07:04:07.534Z,7.33
2023-04-20T07:06:39.135Z,6.53
2023-04-20T07:09:10.297Z,7.10
2023-04-20T07:11:41.434Z,9.03
2023-04-20T07:14:12.353Z,7.63
2023-04-20T07:16:43.575Z,7.17
2023-04-20T07:19:14.610Z,10.07
2023-04-20T07:21:45.689Z,10.17
2023-04-20T07:24:16.599Z,8.13
2023-04-20T07:26:47.683Z,6.90
2023-04-20T07:29:18.702Z,9.33
2023-04-20T07:31:49.976Z,6.27
2023-04-20T07:34:21.130Z,7.23
2023-04-20T07:36:52.091Z,8.73
2023-04-20T07:39:23.592Z,7.43
2023-04-20T07:41:54.596Z,12.67
2023-04-20T07:44:25.696Z,8.50
2023-04-20T07:46:57.812Z,9.83
2023-04-20T07:49:29.397Z,8.17
2023-04-20T07:52:12.867Z,7.50
2023-04-20T07:54:33.403Z,9.30
2023-04-20T07:57:05.893Z,8.23
2023-04-20T07:59:37.046Z,8.27
2023-04-20T08:02:09.482Z,6.77
2023-04-20T08:04:41.436Z,7.73
2023-04-20T08:07:13.048Z,8.87
2023-04-20T08:09:43.961Z,8.70
2023-04-20T08:12:15.024Z,10.03
2023-04-20T08:14:46.173Z,7.03
2023-04-20T08:17:17.203Z,7.57
2023-04-20T08:19:48.206Z,8.40
2023-04-20T08:22:19.138Z,9.93
2023-04-20T08:24:50.187Z,8.00
2023-04-20T08:27:21.332Z,13.70
2023-04-20T08:29:52.468Z,12.30
2023-04-20T08:32:26.227Z,7.47
2023-04-20T08:34:57.558Z,6.47
2023-04-20T08:37:29.185Z,9.47
2023-04-20T08:40:01.314Z,9.70
2023-04-20T08:42:32.401Z,11.90
2023-04-20T08:45:03.373Z,8.03
2023-04-20T08:47:36.294Z,8.13
2023-04-20T08:50:09.895Z,10.80
2023-04-20T08:52:41.040Z,12.37
2023-04-20T08:55:14.081Z,10.63
2023-04-20T08:57:45.084Z,6.47
2023-04-20T09:00:18.787Z,9.00
2023-04-20T09:02:54.076Z,10.37
2023-04-20T09:05:30.292Z,6.80
2023-04-20T09:08:02.409Z,8.97
2023-04-20T09:10:44.025Z,10.50
2023-04-20T09:13:24.905Z,7.00
2023-04-20T09:15:55.567Z,11.43
2023-04-20T09:18:26.266Z,15.50
2023-04-20T09:20:56.952Z,7.27
2023-04-20T09:23:27.740Z,9.17
2023-04-20T09:25:58.421Z,8.87
2023-04-20T09:28:39.163Z,10.70
2023-04-20T09:31:19.438Z,8.43
2023-04-20T09:33:59.917Z,10.10
2023-04-20T09:36:41.765Z,10.47
2023-04-20T09:39:14.246Z,7.60
2023-04-20T09:41:45.818Z,11.07
2023-04-20T09:44:19.046Z,12.57
2023-04-20T09:46:50.180Z,10.27
2023-04-20T09:49:21.588Z,10.20
2023-04-20T09:51:52.546Z,10.30
2023-04-20T09:54:24.102Z,14.20
2023-04-20T09:56:57.211Z,8.73
2023-04-20T09:59:29.985Z,16.50
2023-04-20T10:02:01.180Z,10.73
2023-04-20T10:04:32.688Z,10.67
2023-04-20T10:07:05.776Z,10.03
2023-04-20T10:09:37.954Z,9.23
2023-04-20T10:12:10.825Z,9.87
2023-04-20T10:14:41.470Z,10.57
2023-04-20T10:17:12.339Z,9.17
2023-04-20T10:20:02.067Z,10.47
2023-04-20T10:22:34.335Z,10.23
2023-04-20T10:25:12.026Z,10.67
2023-04-20T10:27:44.510Z,11.73
2023-04-20T10:30:18.201Z,10.33
2023-04-20T10:32:49.393Z,11.23
2023-04-20T10:35:20.572Z,11.97
2023-04-20T10:37:53.091Z,11.30
2023-04-20T10:40:29.078Z,10.70
2023-04-20T10:43:00.195Z,11.40
2023-04-20T10:45:38.494Z,13.77
2023-04-20T10:48:12.695Z,13.00
2023-04-20T10:50:44.694Z,15.30
2023-04-20T10:53:22.593Z,15.53
2023-04-20T10:56:02.415Z,14.23
2023-04-20T10:58:33.455Z,14.03
2023-04-20T11:01:06.038Z,14.23
2023-04-20T11:03:37.150Z,16.90
2023-04-20T11:06:08.292Z,15.53
2023-04-20T11:08:40.554Z,15.03
2023-04-20T11:11:22.311Z,17.00
2023-04-20T11:13:53.646Z,13.83
2023-04-20T11:16:30.387Z,16.07
2023-04-20T11:18:58.433Z,16.63
2023-04-20T11:24:23.830Z,14.30
2023-04-20T11:26:56.351Z,13.77
2023-04-20T11:29:35.014Z,14.07
2023-04-20T11:32:08.276Z,13.83
2023-04-20T11:34:40.281Z,13.37
2023-04-20T11:37:13.867Z,15.80
2023-04-20T11:39:44.974Z,14.17
2023-04-20T11:42:15.807Z,19.93
2023-04-20T11:44:46.889Z,16.87
2023-04-20T11:47:18.076Z,14.93
2023-04-20T11:49:48.985Z,15.67
2023-04-20T11:52:20.157Z,15.23
2023-04-20T11:54:51.159Z,13.23
2023-04-20T11:57:24.091Z,16.67
2023-04-20T11:59:55.234Z,12.87
2023-04-20T12:02:27.657Z,17.93
2023-04-20T12:05:00.475Z,10.90
2023-04-20T12:07:31.683Z,10.10
2023-04-20T12:10:02.739Z,9.87
2023-04-20T12:12:34.079Z,9.87
2023-04-20T12:15:05.772Z,10.23
2023-04-20T12:17:36.856Z,8.93
2023-04-20T12:20:12.619Z,8.67
2023-04-20T12:22:43.714Z,14.33
2023-04-20T12:25:14.970Z,9.13
2023-04-20T12:27:46.793Z,8.80
2023-04-20T12:30:19.055Z,8.80
2023-04-20T12:32:50.222Z,13.80
2023-04-20T12:35:21.901Z,7.80
2023-04-20T12:37:52.972Z,8.17
2023-04-20T12:40:24.624Z,8.03
2023-04-20T12:42:55.822Z,9.30
2023-04-20T12:45:27.251Z,7.93
2023-04-20T12:48:00.405Z,7.33
2023-04-20T12:50:31.344Z,8.63
2023-04-20T12:53:02.532Z,7.10
2023-04-20T12:55:33.809Z,8.33
2023-04-20T12:58:04.756Z,8.13
2023-04-20T13:00:35.839Z,7.63
2023-04-20T13:03:07.192Z,7.20
2023-04-20T13:05:38.290Z,7.27
2023-04-20T13:08:09.739Z,7.20
2023-04-20T13:10:42.900Z,8.37
2023-04-20T13:13:14.190Z,7.70
2023-04-20T13:15:45.321Z,7.57
2023-04-20T13:18:16.400Z,8.27
2023-04-20T13:20:47.591Z,7.60
2023-04-20T13:23:18.910Z,6.97
2023-04-20T13:25:50.396Z,8.80
2023-04-20T13:28:22.120Z,7.63
2023-04-20T13:30:53.826Z,7.73
2023-04-20T13:33:24.748Z,8.17
2023-04-20T13:35:55.705Z,7.63
2023-04-20T13:38:26.848Z,7.20
2023-04-20T13:40:57.966Z,7.30
2023-04-20T13:43:28.998Z,7.67
2023-04-20T13:46:00.033Z,7.60
2023-04-20T13:48:31.097Z,7.40
2023-04-20T13:51:03.359Z,7.70
2023-04-20T13:53:34.357Z,7.27
2023-04-20T13:56:08.974Z,7.20
2023-04-20T13:58:39.675Z,6.73
2023-04-20T14:01:15.234Z,5.90
2023-04-20T14:03:46.424Z,7.13
2023-04-20T14:06:17.245Z,5.83
2023-04-20T14:08:48.298Z,5.67
2023-04-20T14:11:19.116Z,7.33
2023-04-20T14:13:49.736Z,7.33
2023-04-20T14:16:20.352Z,7.23
2023-04-20T14:18:51.080Z,5.93
2023-04-20T14:21:21.850Z,6.50
2023-04-20T14:23:53.701Z,6.77
2023-04-20T14:26:24.534Z,6.47
2023-04-20T14:28:55.565Z,6.30
2023-04-20T14:31:26.263Z,6.43
2023-04-20T14:33:57.010Z,6.63
2023-04-20T14:36:28.123Z,5.03
2023-04-20T14:38:58.909Z,7.20
2023-04-20T14:41:30.723Z,7.77
2023-04-20T14:44:02.036Z,5.70
2023-04-20T14:46:32.821Z,5.37
2023-04-20T14:49:03.514Z,6.57
2023-04-20T14:51:34.151Z,5.47
2023-04-20T14:54:04.820Z,7.10
2023-04-20T14:56:36.012Z,5.23
2023-04-20T14:59:06.696Z,5.07
2023-04-20T15:01:37.827Z,4.50
2023-04-20T15:04:10.256Z,5.00
2023-04-20T15:06:41.029Z,4.67
2023-04-20T15:09:11.854Z,3.57
2023-04-20T15:11:43.880Z,3.80
2023-04-20T15:14:14.828Z,3.87
2023-04-20T15:16:46.170Z,4.17
2023-04-20T15:19:17.644Z,3.03
2023-04-20T15:21:48.867Z,3.63
2023-04-20T15:24:20.369Z,5.93
2023-04-20T15:29:29.753Z,4.27
2023-04-20T15:32:01.525Z,4.90
2023-04-20T15:34:33.201Z,4.17
2023-04-20T15:37:04.248Z,3.93
2023-04-20T15:39:35.329Z,4.73
2023-04-20T15:42:07.074Z,4.90
2023-04-20T15:44:38.311Z,4.80
2023-04-20T15:47:09.428Z,3.87
2023-04-20T15:49:41.406Z,4.30
2023-04-20T15:52:13.146Z,2.83
2023-04-20T15:54:46.852Z,3.33
2023-04-20T15:57:18.088Z,4.05
2023-04-20T15:59:51.653Z,4.97
2023-04-20T16:02:23.250Z,3.90
2023-04-20T16:04:54.546Z,4.50
2023-04-20T16:07:26.216Z,4.90
2023-04-20T16:09:57.366Z,4.27
2023-04-20T16:12:28.573Z,4.03
2023-04-20T16:15:00.772Z,3.67
2023-04-20T16:17:31.887Z,4.40
2023-04-20T16:20:03.058Z,5.17
2023-04-20T16:22:34.435Z,4.57
2023-04-20T16:25:06.259Z,6.03
2023-04-20T16:27:37.430Z,5.37
2023-04-20T16:30:11.516Z,5.17
2023-04-20T16:32:42.615Z,4.93
2023-04-20T16:35:14.274Z,7.83
2023-04-20T16:37:45.437Z,6.03
2023-04-20T16:40:16.737Z,5.70
2023-04-20T16:42:48.139Z,6.40
2023-04-20T16:45:19.794Z,4.40
2023-04-20T16:47:51.935Z,5.03
2023-04-20T16:50:23.223Z,5.03
2023-04-20T16:52:54.579Z,4.73
2023-04-20T16:55:26.276Z,3.93
2023-04-20T16:57:58.863Z,6.63
2023-04-20T17:00:31.385Z,5.60
2023-04-20T17:03:02.805Z,5.17
2023-04-20T17:05:34.039Z,7.27
2023-04-20T17:08:05.769Z,5.40
2023-04-20T17:10:38.043Z,4.50
2023-04-20T17:13:09.172Z,5.20
2023-04-20T17:15:42.805Z,3.97
2023-04-20T17:18:14.169Z,4.57
2023-04-20T17:20:46.173Z,4.50
2023-04-20T17:23:18.599Z,4.63
2023-04-20T17:25:50.067Z,3.47
2023-04-20T17:30:58.707Z,4.23
2023-04-20T17:33:29.688Z,5.83
2023-04-20T17:36:01.459Z,5.73
2023-04-20T17:38:34.316Z,4.57
2023-04-20T17:41:05.544Z,6.60
2023-04-20T17:43:38.365Z,6.57
2023-04-20T17:46:09.683Z,5.50
2023-04-20T17:51:22.710Z,5.00
2023-04-20T17:53:54.100Z,6.33
2023-04-20T17:56:24.979Z,4.90
2023-04-20T17:58:56.054Z,4.07
2023-04-20T18:01:28.230Z,5.13
2023-04-20T18:03:59.739Z,4.47
2023-04-20T18:06:31.828Z,4.13
2023-04-20T18:09:05.056Z,4.23
2023-04-20T18:11:36.941Z,5.00
2023-04-20T18:14:08.232Z,6.70
2023-04-20T18:16:39.279Z,5.70
2023-04-20T18:19:10.555Z,8.87
2023-04-20T18:21:41.765Z,4.67
2023-04-20T18:24:12.997Z,4.33
2023-04-20T18:26:44.503Z,5.17
2023-04-20T18:29:15.682Z,4.87
2023-04-20T18:31:47.392Z,4.13
2023-04-20T18:34:37.279Z,5.20
2023-04-20T18:37:09.863Z,5.03
2023-04-20T18:39:41.907Z,8.30
2023-04-20T18:42:13.094Z,7.70
2023-04-20T18:44:44.262Z,8.23
2023-04-20T18:47:16.796Z,6.73
2023-04-20T18:49:47.848Z,7.40
2023-04-20T18:52:19.408Z,9.23
2023-04-20T18:54:50.358Z,5.77
2023-04-20T18:57:23.343Z,5.37
2023-04-20T18:59:54.204Z,6.60
2023-04-20T19:02:26.565Z,5.83
2023-04-20T19:04:57.531Z,6.57
2023-04-20T19:07:28.611Z,9.60
2023-04-20T19:09:59.545Z,7.57
2023-04-20T19:12:30.688Z,5.87
2023-04-20T19:15:02.403Z,5.30
2023-04-20T19:17:33.751Z,7.10
2023-04-20T19:20:05.247Z,5.43
2023-04-20T19:22:36.358Z,6.67
2023-04-20T19:25:09.028Z,8.23
2023-04-20T19:27:40.105Z,8.03
2023-04-20T19:30:14.261Z,5.73
2023-04-20T19:32:45.442Z,7.87
2023-04-20T19:35:16.576Z,4.40
2023-04-20T19:37:47.600Z,7.73
2023-04-20T19:40:20.274Z,6.17
2023-04-20T19:42:52.272Z,6.00
2023-04-20T19:45:23.741Z,7.67
2023-04-20T19:47:54.944Z,8.83
2023-04-20T19:50:26.039Z,9.97
2023-04-20T19:52:57.752Z,9.03
2023-04-20T19:55:28.766Z,7.93
2023-04-20T19:58:00.202Z,7.57
2023-04-20T20:00:32.564Z,7.23
2023-04-20T20:03:03.679Z,7.77
2023-04-20T20:05:35.012Z,8.57
2023-04-20T20:08:05.919Z,6.43
2023-04-20T20:10:36.885Z,8.27
2023-04-20T20:13:08.041Z,8.73
2023-04-20T20:15:39.306Z,7.20
2023-04-20T20:18:12.224Z,6.37
2023-04-20T20:20:43.510Z,6.93
2023-04-20T20:23:14.597Z,10.77
2023-04-20T20:25:45.688Z,7.90
2023-04-20T20:28:16.623Z,7.47
2023-04-20T20:30:47.907Z,7.87
2023-04-20T20:33:19.146Z,8.17
2023-04-20T20:35:50.208Z,8.23
2023-04-20T20:38:22.728Z,8.80
2023-04-20T20:40:55.122Z,7.77
2023-04-20T20:43:26.600Z,11.07
2023-04-20T20:45:57.849Z,8.23
2023-04-20T20:48:29.100Z,7.80
2023-04-20T20:51:00.091Z,10.70
2023-04-20T20:53:31.177Z,10.00
2023-04-20T20:56:02.017Z,16.83
2023-04-20T20:58:32.903Z,10.20
2023-04-20T21:01:03.847Z,9.43
2023-04-20T21:03:35.204Z,12.83
2023-04-20T21:06:07.259Z,8.97
2023-04-20T21:08:38.293Z,8.00
2023-04-20T21:11:09.285Z,7.73
2023-04-20T21:13:40.218Z,6.73
2023-04-20T21:16:11.211Z,6.67
2023-04-20T21:18:42.020Z,8.43
2023-04-20T21:21:15.340Z,7.90
2023-04-20T21:23:46.260Z,7.70
2023-04-20T21:26:17.459Z,8.07
2023-04-20T21:28:48.417Z,7.27
2023-04-20T21:31:19.408Z,9.80
2023-04-20T21:33:50.427Z,9.43
2023-04-20T21:36:21.331Z,8.40
2023-04-20T21:38:52.329Z,7.10
2023-04-20T21:41:23.387Z,7.90
2023-04-20T21:43:55.840Z,9.50
2023-04-20T21:46:26.726Z,7.20
2023-04-20T21:48:57.719Z,8.60
2023-04-20T21:51:28.799Z,9.17
2023-04-20T21:53:59.806Z,7.77
2023-04-20T21:56:30.882Z,6.47
2023-04-20T21:59:01.859Z,7.87
2023-04-20T22:01:33.104Z,7.23
2023-04-20T22:04:04.930Z,7.57
2023-04-20T22:06:36.276Z,8.33
2023-04-20T22:09:08.135Z,7.50
2023-04-20T22:11:57.914Z,10.00
2023-04-20T22:14:28.948Z,6.33
2023-04-20T22:17:01.996Z,11.33
2023-04-20T22:19:33.571Z,6.63
2023-04-20T22:22:04.628Z,7.67
2023-04-20T22:24:35.597Z,8.87
2023-04-20T22:27:06.797Z,7.23
2023-04-20T22:29:37.831Z,12.20
2023-04-20T22:32:09.242Z,9.50
2023-04-20T22:34:40.536Z,9.73
2023-04-20T22:37:11.614Z,7.47
2023-04-20T22:39:42.636Z,7.50
2023-04-20T22:42:13.744Z,13.63
2023-04-20T22:44:45.741Z,6.43
2023-04-20T22:47:16.964Z,6.67
2023-04-20T22:49:49.110Z,5.47
2023-04-20T22:52:20.075Z,5.47
2023-04-20T22:54:51.278Z,7.30
2023-04-20T22:57:22.649Z,7.53
2023-04-20T22:59:53.652Z,6.97
2023-04-20T23:02:24.731Z,7.90
2023-04-20T23:04:55.961Z,8.63
2023-04-20T23:07:27.674Z,8.07
2023-04-20T23:09:59.854Z,10.27
2023-04-20T23:12:32.664Z,8.90
2023-04-20T23:15:04.012Z,9.53
2023-04-20T23:17:34.982Z,9.00
2023-04-20T23:20:10.532Z,9.70
2023-04-20T23:22:41.815Z,10.47
2023-04-20T23:25:13.180Z,10.73
2023-04-20T23:27:44.210Z,9.93
2023-04-20T23:30:16.645Z,11.60
2023-04-20T23:32:47.664Z,12.53
2023-04-20T23:35:19.668Z,11.03
2023-04-20T23:37:50.653Z,9.80
2023-04-20T23:40:22.086Z,12.53
2023-04-20T23:42:53.295Z,12.83
2023-04-20T23:45:24.925Z,9.63
2023-04-20T23:47:55.941Z,9.80
2023-04-20T23:50:27.144Z,12.13
2023-04-20T23:52:58.101Z,9.73
2023-04-20T23:55:29.052Z,9.10
2023-04-20T23:57:59.978Z,10.90
